Terminal Aerodrome Forecast
Issued by NWS

Home | Current Version | Previous Version | Text Only | Print | Product List | Glossary On
Versions: 1 2 3 4 5 6 7 8 9 10 11 12 13 14 15 16 17 18 19 20 21 22 23
000
FTUS43 KDVN 290700 AAA
TAFBRL
TAF AMD
KBRL 290759Z 2908/3006 30012G20KT P6SM SCT030 SCT150
     FM290900 30015G28KT 6SM BR OVC015
      TEMPO 2909/2912 4SM BR OVC008
     FM291200 32015G22KT 4SM BR OVC008
     FM291500 32018G26KT 6SM BR OVC015
     FM300000 32012KT P6SM BKN030=

USA.gov is the U.S. government's official web portal to all federal, state and local government web resources and services.